sensor_id;sensor_type;location;lat;lon;timestamp;P1;durP1;ratioP1;P2;durP2;ratioP2
36373;SDS011;22399;51.346;12.372;2023-03-01T00:01:19;21.33;;;7.78;;
36373;SDS011;22399;51.346;12.372;2023-03-01T00:03:48;21.90;;;7.30;;
36373;SDS011;22399;51.346;12.372;2023-03-01T00:06:18;28.30;;;7.28;;
36373;SDS011;22399;51.346;12.372;2023-03-01T00:08:47;23.58;;;7.53;;
36373;SDS011;22399;51.346;12.372;2023-03-01T00:11:17;20.58;;;7.05;;
36373;SDS011;22399;51.346;12.372;2023-03-01T00:13:48;14.30;;;6.68;;
36373;SDS011;22399;51.346;12.372;2023-03-01T00:16:19;18.90;;;6.15;;
36373;SDS011;22399;51.346;12.372;2023-03-01T00:18:49;20.63;;;6.38;;
36373;SDS011;22399;51.346;12.372;2023-03-01T00:21:18;13.25;;;6.47;;
36373;SDS011;22399;51.346;12.372;2023-03-01T00:23:49;12.57;;;6.22;;
36373;SDS011;22399;51.346;12.372;2023-03-01T00:26:18;15.15;;;5.57;;
36373;SDS011;22399;51.346;12.372;2023-03-01T00:28:50;18.05;;;7.57;;
36373;SDS011;22399;51.346;12.372;2023-03-01T00:31:20;17.23;;;5.60;;
36373;SDS011;22399;51.346;12.372;2023-03-01T00:33:52;13.65;;;5.97;;
36373;SDS011;22399;51.346;12.372;2023-03-01T00:36:23;15.93;;;5.53;;
36373;SDS011;22399;51.346;12.372;2023-03-01T00:38:53;15.85;;;5.75;;
36373;SDS011;22399;51.346;12.372;2023-03-01T00:41:22;20.25;;;7.13;;
36373;SDS011;22399;51.346;12.372;2023-03-01T00:43:51;22.75;;;6.40;;
36373;SDS011;22399;51.346;12.372;2023-03-01T00:46:21;19.10;;;5.88;;
36373;SDS011;22399;51.346;12.372;2023-03-01T00:48:52;13.90;;;5.80;;
36373;SDS011;22399;51.346;12.372;2023-03-01T00:51:22;28.55;;;6.40;;
36373;SDS011;22399;51.346;12.372;2023-03-01T00:53:58;23.83;;;6.30;;
36373;SDS011;22399;51.346;12.372;2023-03-01T00:56:27;25.30;;;7.55;;
36373;SDS011;22399;51.346;12.372;2023-03-01T00:58:59;15.35;;;6.50;;
36373;SDS011;22399;51.346;12.372;2023-03-01T01:01:28;27.75;;;7.85;;
36373;SDS011;22399;51.346;12.372;2023-03-01T01:03:59;15.65;;;6.20;;
36373;SDS011;22399;51.346;12.372;2023-03-01T01:06:30;11.57;;;5.90;;
36373;SDS011;22399;51.346;12.372;2023-03-01T01:09:00;23.60;;;6.22;;
36373;SDS011;22399;51.346;12.372;2023-03-01T01:11:29;26.10;;;6.38;;
36373;SDS011;22399;51.346;12.372;2023-03-01T01:13:59;21.02;;;5.25;;
36373;SDS011;22399;51.346;12.372;2023-03-01T01:16:28;14.75;;;5.90;;
36373;SDS011;22399;51.346;12.372;2023-03-01T01:18:57;21.13;;;7.20;;
36373;SDS011;22399;51.346;12.372;2023-03-01T01:21:26;14.48;;;6.45;;
36373;SDS011;22399;51.346;12.372;2023-03-01T01:23:55;22.55;;;5.22;;
36373;SDS011;22399;51.346;12.372;2023-03-01T01:26:25;13.88;;;5.82;;
36373;SDS011;22399;51.346;12.372;2023-03-01T01:28:55;12.15;;;5.03;;
36373;SDS011;22399;51.346;12.372;2023-03-01T01:31:26;16.10;;;7.07;;
36373;SDS011;22399;51.346;12.372;2023-03-01T01:33:56;16.65;;;6.25;;
36373;SDS011;22399;51.346;12.372;2023-03-01T01:36:25;11.98;;;4.55;;
36373;SDS011;22399;51.346;12.372;2023-03-01T01:38:55;16.33;;;5.60;;
36373;SDS011;22399;51.346;12.372;2023-03-01T01:41:23;13.85;;;5.10;;
36373;SDS011;22399;51.346;12.372;2023-03-01T01:44:13;20.75;;;5.95;;
36373;SDS011;22399;51.346;12.372;2023-03-01T01:46:47;18.08;;;5.32;;
36373;SDS011;22399;51.346;12.372;2023-03-01T01:49:23;29.10;;;6.13;;
36373;SDS011;22399;51.346;12.372;2023-03-01T01:51:58;22.40;;;7.03;;
36373;SDS011;22399;51.346;12.372;2023-03-01T01:54:35;23.15;;;6.05;;
36373;SDS011;22399;51.346;12.372;2023-03-01T01:57:09;16.55;;;5.90;;
36373;SDS011;22399;51.346;12.372;2023-03-01T01:59:41;18.98;;;5.38;;
36373;SDS011;22399;51.346;12.372;2023-03-01T02:02:12;20.65;;;7.43;;
36373;SDS011;22399;51.346;12.372;2023-03-01T02:04:41;24.83;;;5.28;;
36373;SDS011;22399;51.346;12.372;2023-03-01T02:07:13;27.33;;;7.45;;
36373;SDS011;22399;51.346;12.372;2023-03-01T02:09:44;31.92;;;6.55;;
36373;SDS011;22399;51.346;12.372;2023-03-01T02:12:14;16.83;;;6.35;;
36373;SDS011;22399;51.346;12.372;2023-03-01T02:14:44;22.77;;;6.22;;
36373;SDS011;22399;51.346;12.372;2023-03-01T02:17:15;15.02;;;5.18;;
36373;SDS011;22399;51.346;12.372;2023-03-01T02:19:48;35.28;;;5.85;;
36373;SDS011;22399;51.346;12.372;2023-03-01T02:22:27;13.65;;;5.50;;
36373;SDS011;22399;51.346;12.372;2023-03-01T02:25:03;17.92;;;6.60;;
36373;SDS011;22399;51.346;12.372;2023-03-01T02:27:40;13.70;;;5.50;;
36373;SDS011;22399;51.346;12.372;2023-03-01T02:30:16;27.52;;;7.22;;
36373;SDS011;22399;51.346;12.372;2023-03-01T02:32:45;17.85;;;6.10;;
36373;SDS011;22399;51.346;12.372;2023-03-01T02:35:16;15.27;;;6.15;;
36373;SDS011;22399;51.346;12.372;2023-03-01T02:37:46;19.42;;;7.28;;
36373;SDS011;22399;51.346;12.372;2023-03-01T02:40:17;16.02;;;6.05;;
36373;SDS011;22399;51.346;12.372;2023-03-01T02:42:49;21.50;;;8.25;;
36373;SDS011;22399;51.346;12.372;2023-03-01T02:45:23;20.52;;;6.00;;
36373;SDS011;22399;51.346;12.372;2023-03-01T02:47:53;16.73;;;6.57;;
36373;SDS011;22399;51.346;12.372;2023-03-01T02:50:25;24.23;;;6.95;;
36373;SDS011;22399;51.346;12.372;2023-03-01T02:53:13;23.70;;;7.15;;
36373;SDS011;22399;51.346;12.372;2023-03-01T02:55:47;20.08;;;7.18;;
36373;SDS011;22399;51.346;12.372;2023-03-01T02:58:16;21.10;;;6.78;;
36373;SDS011;22399;51.346;12.372;2023-03-01T03:00:46;13.65;;;6.13;;
36373;SDS011;22399;51.346;12.372;2023-03-01T03:03:16;23.20;;;7.45;;
36373;SDS011;22399;51.346;12.372;2023-03-01T03:05:47;17.80;;;6.70;;
36373;SDS011;22399;51.346;12.372;2023-03-01T03:08:15;17.00;;;7.60;;
36373;SDS011;22399;51.346;12.372;2023-03-01T03:10:51;14.60;;;6.30;;
36373;SDS011;22399;51.346;12.372;2023-03-01T03:13:21;16.17;;;5.85;;
36373;SDS011;22399;51.346;12.372;2023-03-01T03:15:56;22.98;;;6.95;;
36373;SDS011;22399;51.346;12.372;2023-03-01T03:18:25;16.15;;;7.30;;
36373;SDS011;22399;51.346;12.372;2023-03-01T03:20:53;17.60;;;6.03;;
36373;SDS011;22399;51.346;12.372;2023-03-01T03:23:22;14.00;;;6.88;;
36373;SDS011;22399;51.346;12.372;2023-03-01T03:25:50;17.60;;;6.78;;
36373;SDS011;22399;51.346;12.372;2023-03-01T03:28:19;14.65;;;6.10;;
36373;SDS011;22399;51.346;12.372;2023-03-01T03:30:47;25.55;;;5.97;;
36373;SDS011;22399;51.346;12.372;2023-03-01T03:33:17;11.30;;;4.85;;
36373;SDS011;22399;51.346;12.372;2023-03-01T03:35:46;16.67;;;5.18;;
36373;SDS011;22399;51.346;12.372;2023-03-01T03:38:17;15.43;;;5.60;;
36373;SDS011;22399;51.346;12.372;2023-03-01T03:40:48;13.27;;;5.45;;
36373;SDS011;22399;51.346;12.372;2023-03-01T03:43:19;17.48;;;5.97;;
36373;SDS011;22399;51.346;12.372;2023-03-01T03:45:48;16.25;;;5.95;;
36373;SDS011;22399;51.346;12.372;2023-03-01T03:48:19;16.77;;;6.05;;
36373;SDS011;22399;51.346;12.372;2023-03-01T03:50:49;16.13;;;5.50;;
36373;SDS011;22399;51.346;12.372;2023-03-01T03:53:18;13.55;;;6.00;;
36373;SDS011;22399;51.346;12.372;2023-03-01T03:55:47;14.88;;;5.70;;
36373;SDS011;22399;51.346;12.372;2023-03-01T03:58:18;27.85;;;6.43;;
36373;SDS011;22399;51.346;12.372;2023-03-01T04:00:50;16.20;;;6.65;;
36373;SDS011;22399;51.346;12.372;2023-03-01T04:03:21;19.40;;;6.68;;
36373;SDS011;22399;51.346;12.372;2023-03-01T04:05:50;18.60;;;6.95;;
36373;SDS011;22399;51.346;12.372;2023-03-01T04:08:18;17.55;;;5.97;;
36373;SDS011;22399;51.346;12.372;2023-03-01T04:10:48;18.17;;;6.13;;
36373;SDS011;22399;51.346;12.372;2023-03-01T04:13:19;15.82;;;6.70;;
36373;SDS011;22399;51.346;12.372;2023-03-01T04:15:48;25.70;;;7.55;;
36373;SDS011;22399;51.346;12.372;2023-03-01T04:18:18;20.67;;;6.75;;
36373;SDS011;22399;51.346;12.372;2023-03-01T04:20:49;15.75;;;6.97;;
36373;SDS011;22399;51.346;12.372;2023-03-01T04:23:21;12.60;;;5.97;;
36373;SDS011;22399;51.346;12.372;2023-03-01T04:25:50;15.15;;;6.45;;
36373;SDS011;22399;51.346;12.372;2023-03-01T04:28:21;17.00;;;5.70;;
36373;SDS011;22399;51.346;12.372;2023-03-01T04:30:51;20.52;;;6.85;;
36373;SDS011;22399;51.346;12.372;2023-03-01T04:33:21;17.25;;;7.28;;
36373;SDS011;22399;51.346;12.372;2023-03-01T04:35:50;15.63;;;6.22;;
36373;SDS011;22399;51.346;12.372;2023-03-01T04:38:19;17.58;;;6.18;;
36373;SDS011;22399;51.346;12.372;2023-03-01T04:40:48;22.13;;;6.65;;
36373;SDS011;22399;51.346;12.372;2023-03-01T04:43:17;16.67;;;6.68;;
36373;SDS011;22399;51.346;12.372;2023-03-01T04:45:45;19.88;;;6.25;;
36373;SDS011;22399;51.346;12.372;2023-03-01T04:48:14;15.65;;;6.47;;
36373;SDS011;22399;51.346;12.372;2023-03-01T04:50:43;25.48;;;7.57;;
36373;SDS011;22399;51.346;12.372;2023-03-01T04:53:11;29.20;;;6.97;;
36373;SDS011;22399;51.346;12.372;2023-03-01T04:55:40;16.15;;;6.70;;
36373;SDS011;22399;51.346;12.372;2023-03-01T04:58:08;12.43;;;4.97;;
36373;SDS011;22399;51.346;12.372;2023-03-01T05:00:36;17.88;;;6.60;;
36373;SDS011;22399;51.346;12.372;2023-03-01T05:03:05;14.90;;;5.78;;
36373;SDS011;22399;51.346;12.372;2023-03-01T05:05:34;15.00;;;5.80;;
36373;SDS011;22399;51.346;12.372;2023-03-01T05:08:06;18.60;;;6.70;;
36373;SDS011;22399;51.346;12.372;2023-03-01T05:10:35;16.27;;;6.00;;
36373;SDS011;22399;51.346;12.372;2023-03-01T05:13:05;17.95;;;7.15;;
36373;SDS011;22399;51.346;12.372;2023-03-01T05:15:34;17.80;;;5.78;;
36373;SDS011;22399;51.346;12.372;2023-03-01T05:18:03;19.17;;;7.15;;
36373;SDS011;22399;51.346;12.372;2023-03-01T05:20:33;21.52;;;7.63;;
36373;SDS011;22399;51.346;12.372;2023-03-01T05:23:03;20.48;;;6.90;;
36373;SDS011;22399;51.346;12.372;2023-03-01T05:25:34;14.70;;;7.28;;
36373;SDS011;22399;51.346;12.372;2023-03-01T05:28:07;21.50;;;6.22;;
36373;SDS011;22399;51.346;12.372;2023-03-01T05:30:39;18.60;;;7.25;;
36373;SDS011;22399;51.346;12.372;2023-03-01T05:33:08;23.70;;;7.05;;
36373;SDS011;22399;51.346;12.372;2023-03-01T05:35:40;26.60;;;8.40;;
36373;SDS011;22399;51.346;12.372;2023-03-01T05:38:09;15.80;;;6.28;;
36373;SDS011;22399;51.346;12.372;2023-03-01T05:40:41;17.45;;;6.10;;
36373;SDS011;22399;51.346;12.372;2023-03-01T05:43:10;26.25;;;6.93;;
36373;SDS011;22399;51.346;12.372;2023-03-01T05:45:39;27.58;;;7.40;;
36373;SDS011;22399;51.346;12.372;2023-03-01T05:48:09;22.83;;;7.15;;
36373;SDS011;22399;51.346;12.372;2023-03-01T05:50:39;22.60;;;8.55;;
36373;SDS011;22399;51.346;12.372;2023-03-01T05:53:10;22.17;;;7.97;;
36373;SDS011;22399;51.346;12.372;2023-03-01T05:55:41;23.10;;;8.13;;
36373;SDS011;22399;51.346;12.372;2023-03-01T05:58:11;22.27;;;7.90;;
36373;SDS011;22399;51.346;12.372;2023-03-01T06:00:42;22.27;;;7.47;;
36373;SDS011;22399;51.346;12.372;2023-03-01T06:03:11;22.00;;;8.02;;
36373;SDS011;22399;51.346;12.372;2023-03-01T06:05:41;19.65;;;6.95;;
36373;SDS011;22399;51.346;12.372;2023-03-01T06:08:10;20.85;;;6.80;;
36373;SDS011;22399;51.346;12.372;2023-03-01T06:10:40;18.83;;;7.68;;
36373;SDS011;22399;51.346;12.372;2023-03-01T06:13:09;22.73;;;8.05;;
36373;SDS011;22399;51.346;12.372;2023-03-01T06:15:37;19.08;;;7.03;;
36373;SDS011;22399;51.346;12.372;2023-03-01T06:18:06;19.23;;;6.72;;
36373;SDS011;22399;51.346;12.372;2023-03-01T06:20:34;24.83;;;7.53;;
36373;SDS011;22399;51.346;12.372;2023-03-01T06:23:02;24.88;;;7.28;;
36373;SDS011;22399;51.346;12.372;2023-03-01T06:25:30;25.50;;;7.80;;
36373;SDS011;22399;51.346;12.372;2023-03-01T06:28:00;30.27;;;8.65;;
36373;SDS011;22399;51.346;12.372;2023-03-01T06:30:28;26.13;;;9.00;;
36373;SDS011;22399;51.346;12.372;2023-03-01T06:32:56;21.65;;;8.07;;
36373;SDS011;22399;51.346;12.372;2023-03-01T06:35:27;22.77;;;7.28;;
36373;SDS011;22399;51.346;12.372;2023-03-01T06:37:58;21.73;;;6.95;;
36373;SDS011;22399;51.346;12.372;2023-03-01T06:40:28;16.40;;;6.88;;
36373;SDS011;22399;51.346;12.372;2023-03-01T06:42:58;29.17;;;8.63;;
36373;SDS011;22399;51.346;12.372;2023-03-01T06:45:27;21.85;;;7.45;;
36373;SDS011;22399;51.346;12.372;2023-03-01T06:48:02;26.08;;;8.90;;
36373;SDS011;22399;51.346;12.372;2023-03-01T06:50:32;19.70;;;7.15;;
36373;SDS011;22399;51.346;12.372;2023-03-01T06:53:01;20.08;;;7.38;;
36373;SDS011;22399;51.346;12.372;2023-03-01T06:55:29;25.00;;;8.30;;
36373;SDS011;22399;51.346;12.372;2023-03-01T06:58:00;22.55;;;7.43;;
36373;SDS011;22399;51.346;12.372;2023-03-01T07:00:29;17.08;;;6.47;;
36373;SDS011;22399;51.346;12.372;2023-03-01T07:02:58;25.98;;;8.43;;
36373;SDS011;22399;51.346;12.372;2023-03-01T07:05:28;19.33;;;6.78;;
36373;SDS011;22399;51.346;12.372;2023-03-01T07:07:57;26.20;;;7.25;;
36373;SDS011;22399;51.346;12.372;2023-03-01T07:10:25;16.63;;;6.05;;
36373;SDS011;22399;51.346;12.372;2023-03-01T07:12:54;17.70;;;6.28;;
36373;SDS011;22399;51.346;12.372;2023-03-01T07:15:25;17.15;;;6.20;;
36373;SDS011;22399;51.346;12.372;2023-03-01T07:17:54;27.33;;;7.68;;
36373;SDS011;22399;51.346;12.372;2023-03-01T07:20:23;22.58;;;7.25;;
36373;SDS011;22399;51.346;12.372;2023-03-01T07:22:52;11.70;;;5.43;;
36373;SDS011;22399;51.346;12.372;2023-03-01T07:25:22;17.40;;;6.60;;
36373;SDS011;22399;51.346;12.372;2023-03-01T07:27:50;20.35;;;6.70;;
36373;SDS011;22399;51.346;12.372;2023-03-01T07:30:19;25.70;;;7.38;;
36373;SDS011;22399;51.346;12.372;2023-03-01T07:32:49;25.10;;;6.78;;
36373;SDS011;22399;51.346;12.372;2023-03-01T07:35:21;21.25;;;6.97;;
36373;SDS011;22399;51.346;12.372;2023-03-01T07:37:49;17.02;;;6.88;;
36373;SDS011;22399;51.346;12.372;2023-03-01T07:40:17;19.60;;;6.80;;
36373;SDS011;22399;51.346;12.372;2023-03-01T07:42:46;13.80;;;6.80;;
36373;SDS011;22399;51.346;12.372;2023-03-01T07:45:15;22.40;;;7.28;;
36373;SDS011;22399;51.346;12.372;2023-03-01T07:47:43;23.23;;;6.80;;
36373;SDS011;22399;51.346;12.372;2023-03-01T07:50:13;22.83;;;7.15;;
36373;SDS011;22399;51.346;12.372;2023-03-01T07:52:41;21.85;;;7.57;;
36373;SDS011;22399;51.346;12.372;2023-03-01T07:55:12;31.80;;;7.20;;
36373;SDS011;22399;51.346;12.372;2023-03-01T07:57:41;21.10;;;7.07;;
36373;SDS011;22399;51.346;12.372;2023-03-01T08:00:10;19.02;;;6.93;;
36373;SDS011;22399;51.346;12.372;2023-03-01T08:02:39;16.77;;;7.00;;
36373;SDS011;22399;51.346;12.372;2023-03-01T08:05:08;20.98;;;6.85;;
36373;SDS011;22399;51.346;12.372;2023-03-01T08:07:38;26.02;;;7.43;;
36373;SDS011;22399;51.346;12.372;2023-03-01T08:10:07;17.90;;;7.43;;
36373;SDS011;22399;51.346;12.372;2023-03-01T08:12:36;20.42;;;7.03;;
36373;SDS011;22399;51.346;12.372;2023-03-01T08:15:05;19.30;;;6.47;;
36373;SDS011;22399;51.346;12.372;2023-03-01T08:17:33;15.82;;;6.68;;
36373;SDS011;22399;51.346;12.372;2023-03-01T08:20:02;23.60;;;7.57;;
36373;SDS011;22399;51.346;12.372;2023-03-01T08:22:32;25.73;;;7.63;;
36373;SDS011;22399;51.346;12.372;2023-03-01T08:25:02;23.60;;;7.43;;
36373;SDS011;22399;51.346;12.372;2023-03-01T08:27:31;21.55;;;6.30;;
36373;SDS011;22399;51.346;12.372;2023-03-01T08:29:59;25.15;;;8.35;;
36373;SDS011;22399;51.346;12.372;2023-03-01T08:32:27;19.88;;;6.72;;
36373;SDS011;22399;51.346;12.372;2023-03-01T08:34:56;19.48;;;7.10;;
36373;SDS011;22399;51.346;12.372;2023-03-01T08:37:24;14.95;;;6.18;;
36373;SDS011;22399;51.346;12.372;2023-03-01T08:39:54;25.65;;;7.30;;
36373;SDS011;22399;51.346;12.372;2023-03-01T08:42:23;16.95;;;5.95;;
36373;SDS011;22399;51.346;12.372;2023-03-01T08:44:52;20.75;;;7.10;;
36373;SDS011;22399;51.346;12.372;2023-03-01T08:47:20;24.52;;;6.78;;
36373;SDS011;22399;51.346;12.372;2023-03-01T08:49:49;22.00;;;7.43;;
36373;SDS011;22399;51.346;12.372;2023-03-01T08:52:18;22.30;;;7.95;;
36373;SDS011;22399;51.346;12.372;2023-03-01T08:54:47;21.60;;;7.05;;
36373;SDS011;22399;51.346;12.372;2023-03-01T08:57:15;28.45;;;9.20;;
36373;SDS011;22399;51.346;12.372;2023-03-01T08:59:45;22.05;;;6.63;;
36373;SDS011;22399;51.346;12.372;2023-03-01T09:02:14;18.65;;;7.63;;
36373;SDS011;22399;51.346;12.372;2023-03-01T09:04:44;29.55;;;7.95;;
36373;SDS011;22399;51.346;12.372;2023-03-01T09:07:12;15.88;;;7.30;;
36373;SDS011;22399;51.346;12.372;2023-03-01T09:09:40;18.38;;;6.93;;
36373;SDS011;22399;51.346;12.372;2023-03-01T09:12:08;23.25;;;7.43;;
36373;SDS011;22399;51.346;12.372;2023-03-01T09:14:37;20.25;;;8.13;;
36373;SDS011;22399;51.346;12.372;2023-03-01T09:17:09;25.55;;;7.78;;
36373;SDS011;22399;51.346;12.372;2023-03-01T09:19:37;22.10;;;7.28;;
36373;SDS011;22399;51.346;12.372;2023-03-01T09:22:06;17.65;;;6.95;;
36373;SDS011;22399;51.346;12.372;2023-03-01T09:24:35;20.67;;;7.97;;
36373;SDS011;22399;51.346;12.372;2023-03-01T09:27:03;23.58;;;7.45;;
36373;SDS011;22399;51.346;12.372;2023-03-01T09:29:36;21.75;;;7.47;;
36373;SDS011;22399;51.346;12.372;2023-03-01T09:32:06;23.98;;;8.48;;
36373;SDS011;22399;51.346;12.372;2023-03-01T09:34:37;16.25;;;7.03;;
36373;SDS011;22399;51.346;12.372;2023-03-01T09:37:19;25.67;;;7.82;;
36373;SDS011;22399;51.346;12.372;2023-03-01T09:39:47;29.33;;;7.95;;
36373;SDS011;22399;51.346;12.372;2023-03-01T09:42:16;29.38;;;8.98;;
36373;SDS011;22399;51.346;12.372;2023-03-01T09:44:45;27.58;;;8.52;;
36373;SDS011;22399;51.346;12.372;2023-03-01T09:47:19;22.05;;;7.90;;
36373;SDS011;22399;51.346;12.372;2023-03-01T09:49:56;22.90;;;8.95;;
36373;SDS011;22399;51.346;12.372;2023-03-01T09:52:30;29.33;;;8.73;;
36373;SDS011;22399;51.346;12.372;2023-03-01T09:55:08;23.60;;;7.43;;
36373;SDS011;22399;51.346;12.372;2023-03-01T09:57:41;19.65;;;6.93;;
36373;SDS011;22399;51.346;12.372;2023-03-01T10:03:08;18.77;;;7.32;;
36373;SDS011;22399;51.346;12.372;2023-03-01T10:05:48;22.98;;;7.60;;
36373;SDS011;22399;51.346;12.372;2023-03-01T10:08:25;16.40;;;7.68;;
36373;SDS011;22399;51.346;12.372;2023-03-01T10:11:15;20.20;;;6.18;;
36373;SDS011;22399;51.346;12.372;2023-03-01T10:13:51;21.17;;;7.65;;
36373;SDS011;22399;51.346;12.372;2023-03-01T10:16:28;17.80;;;6.57;;
36373;SDS011;22399;51.346;12.372;2023-03-01T10:19:02;20.27;;;8.05;;
36373;SDS011;22399;51.346;12.372;2023-03-01T10:21:35;23.13;;;7.22;;
36373;SDS011;22399;51.346;12.372;2023-03-01T10:24:10;19.10;;;6.95;;
36373;SDS011;22399;51.346;12.372;2023-03-01T10:26:44;25.45;;;7.75;;
36373;SDS011;22399;51.346;12.372;2023-03-01T10:29:17;25.58;;;7.90;;
36373;SDS011;22399;51.346;12.372;2023-03-01T10:31:52;25.58;;;7.30;;
36373;SDS011;22399;51.346;12.372;2023-03-01T10:34:22;17.60;;;7.63;;
36373;SDS011;22399;51.346;12.372;2023-03-01T10:36:57;23.85;;;7.65;;
36373;SDS011;22399;51.346;12.372;2023-03-01T10:39:29;25.73;;;8.05;;
36373;SDS011;22399;51.346;12.372;2023-03-01T10:42:01;19.17;;;8.13;;
36373;SDS011;22399;51.346;12.372;2023-03-01T10:44:41;27.08;;;8.27;;
36373;SDS011;22399;51.346;12.372;2023-03-01T10:47:16;24.63;;;7.88;;
36373;SDS011;22399;51.346;12.372;2023-03-01T10:49:55;24.38;;;6.85;;
36373;SDS011;22399;51.346;12.372;2023-03-01T10:52:28;19.10;;;6.25;;
36373;SDS011;22399;51.346;12.372;2023-03-01T10:55:00;22.60;;;6.72;;
36373;SDS011;22399;51.346;12.372;2023-03-01T10:57:33;22.55;;;6.72;;
36373;SDS011;22399;51.346;12.372;2023-03-01T11:03:02;19.60;;;6.40;;
36373;SDS011;22399;51.346;12.372;2023-03-01T11:05:50;14.55;;;6.43;;
36373;SDS011;22399;51.346;12.372;2023-03-01T11:08:38;17.95;;;6.82;;
36373;SDS011;22399;51.346;12.372;2023-03-01T11:13:59;22.45;;;7.47;;
36373;SDS011;22399;51.346;12.372;2023-03-01T11:16:58;20.58;;;8.00;;
36373;SDS011;22399;51.346;12.372;2023-03-01T11:19:28;22.15;;;8.48;;
36373;SDS011;22399;51.346;12.372;2023-03-01T11:21:59;19.85;;;6.55;;
36373;SDS011;22399;51.346;12.372;2023-03-01T11:24:33;20.25;;;7.70;;
36373;SDS011;22399;51.346;12.372;2023-03-01T11:27:15;22.77;;;8.68;;
36373;SDS011;22399;51.346;12.372;2023-03-01T11:29:48;21.88;;;7.57;;
36373;SDS011;22399;51.346;12.372;2023-03-01T11:32:22;20.50;;;7.80;;
36373;SDS011;22399;51.346;12.372;2023-03-01T11:34:54;22.67;;;7.35;;
36373;SDS011;22399;51.346;12.372;2023-03-01T11:37:35;26.63;;;8.82;;
36373;SDS011;22399;51.346;12.372;2023-03-01T11:40:14;20.70;;;8.23;;
36373;SDS011;22399;51.346;12.372;2023-03-01T11:42:52;22.63;;;8.15;;
36373;SDS011;22399;51.346;12.372;2023-03-01T11:45:29;21.10;;;8.27;;
36373;SDS011;22399;51.346;12.372;2023-03-01T11:48:09;23.27;;;8.75;;
36373;SDS011;22399;51.346;12.372;2023-03-01T11:50:54;18.58;;;7.18;;
36373;SDS011;22399;51.346;12.372;2023-03-01T11:53:32;18.77;;;7.50;;
36373;SDS011;22399;51.346;12.372;2023-03-01T11:56:13;21.08;;;7.85;;
36373;SDS011;22399;51.346;12.372;2023-03-01T12:02:07;25.20;;;8.07;;
36373;SDS011;22399;51.346;12.372;2023-03-01T12:05:02;23.77;;;7.85;;
36373;SDS011;22399;51.346;12.372;2023-03-01T12:07:51;20.63;;;7.70;;
36373;SDS011;22399;51.346;12.372;2023-03-01T12:10:25;22.40;;;8.77;;
36373;SDS011;22399;51.346;12.372;2023-03-01T12:13:11;24.92;;;8.70;;
36373;SDS011;22399;51.346;12.372;2023-03-01T12:15:58;21.38;;;7.72;;
36373;SDS011;22399;51.346;12.372;2023-03-01T12:19:01;22.83;;;8.05;;
36373;SDS011;22399;51.346;12.372;2023-03-01T12:21:41;20.80;;;6.72;;
36373;SDS011;22399;51.346;12.372;2023-03-01T12:27:26;15.75;;;7.00;;
36373;SDS011;22399;51.346;12.372;2023-03-01T12:30:15;19.15;;;6.15;;
36373;SDS011;22399;51.346;12.372;2023-03-01T12:32:53;20.15;;;6.28;;
36373;SDS011;22399;51.346;12.372;2023-03-01T12:35:36;18.52;;;7.30;;
36373;SDS011;22399;51.346;12.372;2023-03-01T12:38:21;15.43;;;5.78;;
36373;SDS011;22399;51.346;12.372;2023-03-01T12:41:05;18.60;;;6.38;;
36373;SDS011;22399;51.346;12.372;2023-03-01T12:44:02;18.70;;;6.50;;
36373;SDS011;22399;51.346;12.372;2023-03-01T12:46:46;16.83;;;6.22;;
36373;SDS011;22399;51.346;12.372;2023-03-01T12:49:24;17.23;;;5.90;;
36373;SDS011;22399;51.346;12.372;2023-03-01T12:51:58;15.15;;;6.55;;
36373;SDS011;22399;51.346;12.372;2023-03-01T12:54:29;14.32;;;5.78;;
36373;SDS011;22399;51.346;12.372;2023-03-01T12:57:02;16.98;;;6.72;;
36373;SDS011;22399;51.346;12.372;2023-03-01T12:59:38;15.93;;;5.82;;
36373;SDS011;22399;51.346;12.372;2023-03-01T13:02:14;17.02;;;6.57;;
36373;SDS011;22399;51.346;12.372;2023-03-01T13:04:53;18.02;;;6.57;;
36373;SDS011;22399;51.346;12.372;2023-03-01T13:07:35;19.00;;;7.05;;
36373;SDS011;22399;51.346;12.372;2023-03-01T13:10:17;26.42;;;7.72;;
36373;SDS011;22399;51.346;12.372;2023-03-01T13:12:52;21.55;;;6.57;;
36373;SDS011;22399;51.346;12.372;2023-03-01T13:15:30;16.08;;;6.65;;
36373;SDS011;22399;51.346;12.372;2023-03-01T13:18:02;18.15;;;6.65;;
36373;SDS011;22399;51.346;12.372;2023-03-01T13:20:44;13.57;;;5.53;;
36373;SDS011;22399;51.346;12.372;2023-03-01T13:23:23;17.65;;;6.18;;
36373;SDS011;22399;51.346;12.372;2023-03-01T13:26:00;17.02;;;5.80;;
36373;SDS011;22399;51.346;12.372;2023-03-01T13:28:48;20.25;;;6.57;;
36373;SDS011;22399;51.346;12.372;2023-03-01T13:37:18;22.42;;;5.90;;
36373;SDS011;22399;51.346;12.372;2023-03-01T13:39:56;19.70;;;5.72;;
36373;SDS011;22399;51.346;12.372;2023-03-01T13:42:31;12.40;;;5.38;;
36373;SDS011;22399;51.346;12.372;2023-03-01T13:45:35;21.70;;;6.43;;
36373;SDS011;22399;51.346;12.372;2023-03-01T13:48:09;16.27;;;5.25;;
36373;SDS011;22399;51.346;12.372;2023-03-01T13:50:45;10.15;;;4.95;;
36373;SDS011;22399;51.346;12.372;2023-03-01T13:53:17;11.88;;;4.85;;
36373;SDS011;22399;51.346;12.372;2023-03-01T13:55:47;23.95;;;6.20;;
36373;SDS011;22399;51.346;12.372;2023-03-01T13:58:20;13.95;;;5.93;;
36373;SDS011;22399;51.346;12.372;2023-03-01T14:00:55;18.02;;;5.93;;
36373;SDS011;22399;51.346;12.372;2023-03-01T14:03:25;22.60;;;5.78;;
36373;SDS011;22399;51.346;12.372;2023-03-01T14:06:00;22.75;;;6.18;;
36373;SDS011;22399;51.346;12.372;2023-03-01T14:08:42;16.55;;;6.57;;
36373;SDS011;22399;51.346;12.372;2023-03-01T14:17:12;17.40;;;5.28;;
36373;SDS011;22399;51.346;12.372;2023-03-01T14:19:54;16.55;;;4.47;;
36373;SDS011;22399;51.346;12.372;2023-03-01T14:22:27;9.15;;;4.35;;
36373;SDS011;22399;51.346;12.372;2023-03-01T14:24:57;18.10;;;5.78;;
36373;SDS011;22399;51.346;12.372;2023-03-01T14:27:28;19.23;;;4.22;;
36373;SDS011;22399;51.346;12.372;2023-03-01T14:30:01;11.70;;;5.13;;
36373;SDS011;22399;51.346;12.372;2023-03-01T14:32:31;13.57;;;4.82;;
36373;SDS011;22399;51.346;12.372;2023-03-01T14:35:00;13.15;;;3.85;;
36373;SDS011;22399;51.346;12.372;2023-03-01T14:37:31;12.95;;;4.90;;
36373;SDS011;22399;51.346;12.372;2023-03-01T14:40:02;16.15;;;5.78;;
36373;SDS011;22399;51.346;12.372;2023-03-01T14:42:49;10.85;;;4.20;;
36373;SDS011;22399;51.346;12.372;2023-03-01T14:45:18;10.02;;;4.07;;
36373;SDS011;22399;51.346;12.372;2023-03-01T14:47:47;15.02;;;6.32;;
36373;SDS011;22399;51.346;12.372;2023-03-01T14:50:18;8.23;;;3.47;;
36373;SDS011;22399;51.346;12.372;2023-03-01T14:52:53;10.73;;;4.30;;
36373;SDS011;22399;51.346;12.372;2023-03-01T14:55:25;12.52;;;5.10;;
36373;SDS011;22399;51.346;12.372;2023-03-01T14:57:57;14.30;;;4.47;;
36373;SDS011;22399;51.346;12.372;2023-03-01T15:00:29;13.25;;;4.63;;
36373;SDS011;22399;51.346;12.372;2023-03-01T15:03:00;14.38;;;4.15;;
36373;SDS011;22399;51.346;12.372;2023-03-01T15:05:36;9.95;;;3.63;;
36373;SDS011;22399;51.346;12.372;2023-03-01T15:08:06;10.57;;;4.55;;
36373;SDS011;22399;51.346;12.372;2023-03-01T15:10:35;12.20;;;4.00;;
36373;SDS011;22399;51.346;12.372;2023-03-01T15:13:12;17.10;;;4.75;;
36373;SDS011;22399;51.346;12.372;2023-03-01T15:15:48;13.93;;;3.85;;
36373;SDS011;22399;51.346;12.372;2023-03-01T15:18:18;12.52;;;3.92;;